Time;durP1;ratioP1;P1;durP2;ratioP2;P2;SDS_P1;SDS_P2;PMS_P1;PMS_P2;Temp;Humidity;BMP_temperature;BMP_pressure;BME280_temperature;BME280_humidity;BME280_pressure;Samples;Min_cycle;Max_cycle;Signal;HPM_P1;HPM_P2
2022/07/27 00:00:15;;;;;;;7.73;3.10;;;21.70;77.10;;;;;;5055299;28;20469;-57
2022/07/27 00:02:42;;;;;;;3.80;2.83;;;21.70;77.50;;;;;;5055439;28;20477;-56
2022/07/27 00:05:09;;;;;;;3.17;2.80;;;21.70;77.80;;;;;;5055392;28;20528;-56
2022/07/27 00:07:38;;;;;;;3.67;2.50;;;21.60;77.80;;;;;;5055195;28;20933;-56
2022/07/27 00:10:06;;;;;;;5.87;2.53;;;21.70;77.70;;;;;;5055182;28;20540;-56
2022/07/27 00:12:33;;;;;;;3.97;2.90;;;21.70;78.10;;;;;;5055188;28;20993;-56
2022/07/27 00:15:00;;;;;;;3.40;2.83;;;21.70;78.30;;;;;;5055267;28;20571;-56
2022/07/27 00:17:27;;;;;;;8.60;3.00;;;21.70;78.50;;;;;;5055007;28;20959;-56
2022/07/27 00:19:55;;;;;;;4.10;3.00;;;21.60;79.10;;;;;;5054733;28;20481;-56
2022/07/27 00:22:22;;;;;;;3.10;2.90;;;21.60;79.20;;;;;;5054799;28;20476;-57
2022/07/27 00:24:51;;;;;;;5.00;3.40;;;21.60;79.70;;;;;;5054932;28;20441;-57
2022/07/27 00:27:18;;;;;;;5.00;2.87;;;21.60;79.50;;;;;;5054957;28;20485;-56
2022/07/27 00:29:45;;;;;;;3.33;2.40;;;21.60;79.80;;;;;;5054489;28;20548;-56
2022/07/27 00:32:12;;;;;;;4.13;3.23;;;21.60;79.80;;;;;;5054990;28;20453;-56
2022/07/27 00:34:39;;;;;;;3.50;3.20;;;21.70;79.90;;;;;;5054834;28;20481;-57
2022/07/27 00:37:07;;;;;;;3.20;3.00;;;21.60;80.30;;;;;;5054479;28;20446;-57
2022/07/27 00:39:34;;;;;;;4.33;3.40;;;21.50;80.50;;;;;;5054513;28;20548;-57
2022/07/27 00:42:03;;;;;;;5.83;3.53;;;21.50;81.30;;;;;;5054249;28;20858;-56
2022/07/27 00:44:31;;;;;;;3.20;2.90;;;21.50;81.20;;;;;;5054437;28;20452;-56
2022/07/27 00:46:59;;;;;;;3.00;2.80;;;21.50;81.20;;;;;;5054703;28;20449;-58
2022/07/27 00:49:26;;;;;;;4.03;3.10;;;21.60;81.60;;;;;;5054186;28;20532;-58
2022/07/27 00:51:55;;;;;;;4.27;3.03;;;21.60;81.50;;;;;;5054276;28;20503;-58
2022/07/27 00:54:22;;;;;;;3.60;3.27;;;21.70;82.90;;;;;;5054457;28;20445;-58
2022/07/27 00:56:49;;;;;;;3.70;3.30;;;21.60;81.40;;;;;;5054108;28;20541;-58
2022/07/27 00:59:19;;;;;;;4.40;3.00;;;21.50;82.00;;;;;;5054314;28;20922;-58
2022/07/27 01:01:46;;;;;;;10.20;3.80;;;21.50;82.60;;;;;;5054070;28;20451;-59
2022/07/27 01:04:13;;;;;;;3.20;3.00;;;21.50;82.30;;;;;;5054484;28;20446;-58
2022/07/27 01:06:41;;;;;;;5.03;3.47;;;21.30;82.30;;;;;;5053914;28;20801;-58
2022/07/27 01:11:53;;;;;;;3.17;2.97;;;21.40;82.70;;;;;;5054060;28;20408;-58
2022/07/27 01:14:22;;;;;;;5.30;3.00;;;21.40;83.00;;;;;;5054170;28;20449;-58
2022/07/27 01:16:50;;;;;;;4.00;3.30;;;21.30;83.50;;;;;;5053747;28;20446;-58
2022/07/27 01:19:18;;;;;;;4.90;3.03;;;21.30;84.00;;;;;;5053926;28;20456;-58
2022/07/27 01:21:46;;;;;;;3.23;2.93;;;21.20;84.00;;;;;;5054110;28;20453;-58
2022/07/27 01:24:14;;;;;;;3.40;3.20;;;21.20;84.30;;;;;;5053810;28;20452;-58
2022/07/27 01:26:41;;;;;;;3.73;2.90;;;21.20;84.70;;;;;;5053861;28;20451;-57
2022/07/27 01:29:08;;;;;;;7.50;3.90;;;21.10;84.80;;;;;;5053602;28;20488;-58
2022/07/27 01:31:35;;;;;;;3.97;3.07;;;21.10;85.10;;;;;;5053375;28;20555;-58
2022/07/27 01:34:04;;;;;;;4.27;3.53;;;21.00;85.80;;;;;;5053400;28;20481;-58
2022/07/27 01:36:32;;;;;;;9.00;4.10;;;21.00;86.00;;;;;;5053762;28;20843;-58
2022/07/27 01:39:00;;;;;;;5.50;3.53;;;21.00;86.10;;;;;;5053581;28;20449;-58
2022/07/27 01:41:27;;;;;;;4.20;3.73;;;20.90;86.40;;;;;;5053388;28;20772;-58
2022/07/27 01:43:54;;;;;;;4.10;3.40;;;20.80;87.00;;;;;;5053682;28;20517;-58
2022/07/27 01:46:21;;;;;;;3.67;3.23;;;20.70;87.40;;;;;;5053549;28;20533;-58
2022/07/27 01:48:49;;;;;;;3.73;3.43;;;20.80;87.70;;;;;;5053451;28;20545;-58
2022/07/27 01:51:20;;;;;;;3.83;3.50;;;20.80;88.00;;;;;;5052878;28;20465;-58
2022/07/27 01:53:47;;;;;;;6.07;3.23;;;20.80;89.20;;;;;;5053539;28;20449;-58
2022/07/27 01:56:15;;;;;;;4.70;3.37;;;20.80;88.30;;;;;;5053235;28;20481;-58
2022/07/27 01:58:43;;;;;;;3.73;3.23;;;20.80;88.80;;;;;;5053270;28;20891;-58
2022/07/27 02:01:11;;;;;;;4.03;3.73;;;20.70;89.10;;;;;;5053056;28;20599;-58
2022/07/27 02:03:38;;;;;;;5.13;3.53;;;20.70;89.10;;;;;;5053197;28;20445;-58
2022/07/27 02:06:05;;;;;;;3.60;3.30;;;20.60;89.80;;;;;;5052844;28;20449;-58
2022/07/27 02:08:33;;;;;;;4.00;3.50;;;20.60;90.00;;;;;;5052974;28;20449;-58
2022/07/27 02:13:48;;;;;;;5.70;3.83;;;20.50;90.50;;;;;;5052946;28;20481;-58
2022/07/27 02:16:16;;;;;;;6.20;3.93;;;20.40;90.40;;;;;;5052988;28;20571;-58
2022/07/27 02:18:44;;;;;;;5.03;3.83;;;20.50;90.60;;;;;;5052877;28;20536;-58
2022/07/27 02:21:12;;;;;;;5.97;3.33;;;20.60;90.70;;;;;;5052930;28;20969;-58
2022/07/27 02:23:40;;;;;;;4.00;3.60;;;20.60;91.10;;;;;;5052972;28;20535;-58
2022/07/27 02:26:08;;;;;;;4.03;3.67;;;20.60;90.80;;;;;;5052559;28;20440;-58
2022/07/27 02:28:36;;;;;;;5.00;3.40;;;20.50;90.80;;;;;;5052790;28;20477;-58
2022/07/27 02:31:05;;;;;;;3.30;3.10;;;20.50;91.00;;;;;;5052743;28;20556;-58
2022/07/27 02:33:32;;;;;;;3.60;3.30;;;20.40;91.40;;;;;;5052876;28;20484;-58
2022/07/27 02:35:59;;;;;;;7.17;3.40;;;20.30;91.50;;;;;;5052905;28;20563;-58
2022/07/27 02:38:26;;;;;;;3.40;3.13;;;20.30;91.60;;;;;;5052496;28;21012;-58
2022/07/27 02:40:53;;;;;;;7.80;4.30;;;20.30;91.90;;;;;;5052377;28;20985;-58
2022/07/27 02:43:21;;;;;;;4.03;3.73;;;20.30;91.90;;;;;;5052460;28;20540;-59
2022/07/27 02:45:48;;;;;;;5.87;3.50;;;20.20;92.30;;;;;;5052417;28;20446;-58
2022/07/27 02:48:17;;;;;;;5.17;4.00;;;20.20;92.50;;;;;;5052709;28;20449;-58
2022/07/27 02:50:44;;;;;;;7.27;3.90;;;20.20;92.80;;;;;;5052486;28;20644;-58
2022/07/27 02:53:11;;;;;;;5.50;3.97;;;20.20;92.90;;;;;;5052356;28;20898;-58
2022/07/27 02:55:38;;;;;;;4.47;3.73;;;20.20;93.00;;;;;;5052307;28;20477;-58
2022/07/27 02:58:05;;;;;;;7.53;3.80;;;20.20;93.20;;;;;;5052792;28;20475;-58
2022/07/27 03:00:32;;;;;;;4.40;4.00;;;20.20;93.30;;;;;;5052556;28;20893;-57
2022/07/27 03:03:00;;;;;;;7.07;3.60;;;20.20;93.50;;;;;;5053113;28;20472;-58
2022/07/27 03:05:28;;;;;;;4.23;3.93;;;20.20;93.60;;;;;;5056619;28;20527;-58
2022/07/27 03:07:55;;;;;;;8.07;3.70;;;20.10;93.90;;;;;;5056506;28;20528;-57
2022/07/27 03:10:23;;;;;;;5.13;4.50;;;20.10;94.00;;;;;;5056467;28;20568;-58
2022/07/27 03:12:50;;;;;;;3.83;3.53;;;20.00;94.10;;;;;;5056228;28;20482;-58
2022/07/27 03:15:17;;;;;;;9.53;3.50;;;;;;;;;;5056366;28;20563;-58
2022/07/27 03:17:45;;;;;;;4.77;4.27;;;19.70;99.90;;;;;;5056391;28;20468;-57
2022/07/27 03:20:12;;;;;;;3.87;3.30;;;19.90;98.40;;;;;;5055935;28;20555;-58
2022/07/27 03:22:41;;;;;;;4.40;4.00;;;20.00;99.90;;;;;;5056334;28;20480;-58
2022/07/27 03:25:10;;;;;;;6.40;3.87;;;20.10;95.70;;;;;;5056026;28;20467;-58
2022/07/27 03:27:37;;;;;;;4.83;3.97;;;20.10;95.30;;;;;;5056078;28;20449;-58
2022/07/27 03:30:05;;;;;;;6.40;3.80;;;;;;;;;;5055834;28;20547;-57
2022/07/27 03:32:35;;;;;;;4.23;3.67;;;;;;;;;;5056044;28;20459;-57
2022/07/27 03:35:02;;;;;;;7.40;4.17;;;;;;;;;;5055591;28;20941;-57
2022/07/27 03:37:32;;;;;;;4.70;3.63;;;;;;;;;;5055707;28;20544;-58
2022/07/27 03:40:01;;;;;;;5.97;3.90;;;19.60;96.40;;;;;;5055589;28;20487;-58
2022/07/27 03:42:28;;;;;;;4.90;4.10;;;19.60;96.90;;;;;;5055472;28;20787;-57
2022/07/27 03:44:55;;;;;;;3.90;3.60;;;19.50;97.20;;;;;;5055979;28;20472;-58
2022/07/27 03:47:23;;;;;;;5.03;4.53;;;19.40;97.50;;;;;;5055867;28;20499;-58
2022/07/27 03:49:51;;;;;;;4.47;4.00;;;19.40;97.90;;;;;;5055636;28;20465;-57
2022/07/27 03:52:18;;;;;;;5.93;4.20;;;19.40;98.30;;;;;;5055315;28;20449;-58
2022/07/27 03:54:46;;;;;;;5.00;3.90;;;19.30;98.50;;;;;;5055496;28;20891;-58
2022/07/27 03:57:15;;;;;;;7.50;4.27;;;19.40;99.10;;;;;;5055480;28;20484;-58
2022/07/27 03:59:42;;;;;;;6.50;4.13;;;19.20;99.60;;;;;;5055160;28;20827;-58
2022/07/27 04:02:09;;;;;;;5.77;4.00;;;19.20;99.70;;;;;;5055538;28;20449;-57
2022/07/27 04:04:37;;;;;;;4.67;3.73;;;19.10;99.90;;;;;;5055130;28;20952;-58
2022/07/27 04:07:04;;;;;;;6.03;3.93;;;19.20;99.90;;;;;;5055054;28;20972;-58
2022/07/27 04:09:31;;;;;;;4.80;4.40;;;19.20;99.90;;;;;;5055171;28;20456;-58
2022/07/27 04:11:58;;;;;;;7.10;4.43;;;19.20;99.90;;;;;;5055005;28;20530;-58
2022/07/27 04:14:27;;;;;;;4.80;4.40;;;19.20;99.90;;;;;;5054761;28;20544;-57
2022/07/27 04:16:54;;;;;;;5.00;4.60;;;19.20;99.90;;;;;;5055301;28;20560;-58
2022/07/27 04:19:21;;;;;;;6.27;4.57;;;19.20;99.90;;;;;;5054677;28;20499;-58
2022/07/27 04:21:49;;;;;;;5.50;4.67;;;19.30;99.90;;;;;;5055098;28;20867;-58
2022/07/27 04:24:16;;;;;;;6.10;4.37;;;19.50;99.90;;;;;;5054812;28;20460;-58
2022/07/27 04:26:43;;;;;;;4.60;4.20;;;19.40;99.90;;;;;;5054639;28;20433;-58
2022/07/27 04:29:10;;;;;;;4.67;3.37;;;19.50;99.90;;;;;;5054628;28;20456;-57
2022/07/27 04:31:39;;;;;;;6.00;4.67;;;19.50;99.90;;;;;;5054700;28;21005;-57
2022/07/27 04:34:06;;;;;;;6.27;4.10;;;19.60;99.90;;;;;;5054491;28;20549;-58
2022/07/27 04:36:34;;;;;;;6.03;3.97;;;19.60;99.90;;;;;;5054435;28;20563;-58
2022/07/27 04:39:01;;;;;;;6.33;4.37;;;19.60;99.90;;;;;;5054375;28;20497;-58
2022/07/27 04:41:28;;;;;;;6.10;4.30;;;19.70;99.90;;;;;;5054279;28;20493;-58
2022/07/27 04:43:56;;;;;;;4.60;4.13;;;19.60;99.90;;;;;;5054610;28;20447;-58
2022/07/27 04:46:23;;;;;;;4.97;4.40;;;19.70;99.90;;;;;;5054742;28;20533;-58
2022/07/27 04:48:52;;;;;;;5.83;5.13;;;19.70;99.90;;;;;;5054664;28;20445;-58
2022/07/27 04:51:19;;;;;;;5.20;4.50;;;19.80;99.90;;;;;;5054490;28;20505;-58
2022/07/27 04:53:46;;;;;;;5.47;4.97;;;19.60;99.90;;;;;;5054528;28;20531;-58
2022/07/27 04:56:13;;;;;;;6.07;4.10;;;19.60;99.90;;;;;;5054131;28;20975;-58
2022/07/27 04:58:41;;;;;;;7.30;4.40;;;19.60;99.90;;;;;;5054044;28;20955;-58
2022/07/27 05:01:10;;;;;;;6.17;4.30;;;19.60;99.90;;;;;;5053871;28;21039;-58
2022/07/27 05:03:38;;;;;;;5.13;4.40;;;19.70;99.90;;;;;;5054113;28;20552;-58
2022/07/27 05:06:07;;;;;;;5.57;4.20;;;19.60;99.90;;;;;;5054263;28;20441;-58
2022/07/27 05:08:35;;;;;;;7.47;5.00;;;19.60;99.90;;;;;;5054096;28;20802;-58
2022/07/27 05:11:02;;;;;;;12.20;4.90;;;19.70;99.90;;;;;;5053790;28;20851;-58
2022/07/27 05:13:30;;;;;;;5.40;4.90;;;19.80;99.90;;;;;;5053635;28;20544;-58
2022/07/27 05:15:57;;;;;;;4.63;4.23;;;19.80;99.90;;;;;;5053706;28;20485;-58
2022/07/27 05:18:25;;;;;;;11.33;5.27;;;19.80;99.90;;;;;;5053652;28;20890;-58
2022/07/27 05:20:52;;;;;;;7.03;5.07;;;19.90;99.90;;;;;;5053555;28;20981;-58
2022/07/27 05:23:21;;;;;;;5.87;4.50;;;20.00;99.90;;;;;;5053578;28;20445;-58
2022/07/27 05:25:48;;;;;;;4.80;4.40;;;20.00;99.90;;;;;;5052788;28;20473;-58
2022/07/27 05:28:16;;;;;;;4.70;4.30;;;20.10;99.90;;;;;;5053513;28;20441;-57
2022/07/27 05:30:43;;;;;;;4.93;4.43;;;19.90;99.90;;;;;;5053181;28;20477;-58
2022/07/27 05:33:10;;;;;;;5.83;4.50;;;20.00;99.90;;;;;;5052986;28;20942;-58
2022/07/27 05:35:37;;;;;;;7.67;4.60;;;20.00;99.90;;;;;;5053167;28;20823;-57
2022/07/27 05:38:05;;;;;;;5.77;5.17;;;20.00;99.90;;;;;;5053419;28;20856;-57
2022/07/27 05:40:34;;;;;;;6.07;5.47;;;20.10;99.90;;;;;;5053378;28;21043;-58
2022/07/27 05:43:01;;;;;;;6.13;5.37;;;20.10;99.90;;;;;;5052995;28;21054;-58
2022/07/27 05:45:28;;;;;;;5.10;4.60;;;20.20;99.90;;;;;;5053108;28;21064;-57
2022/07/27 05:47:58;;;;;;;5.33;4.93;;;20.10;99.90;;;;;;5052904;28;20484;-57
2022/07/27 05:50:25;;;;;;;5.07;4.60;;;20.20;99.90;;;;;;5052921;28;20982;-58
2022/07/27 05:52:52;;;;;;;10.57;5.83;;;20.20;99.90;;;;;;5052504;28;20937;-58
2022/07/27 05:55:20;;;;;;;5.77;5.33;;;20.20;99.90;;;;;;5052904;28;20548;-57
2022/07/27 05:57:49;;;;;;;5.50;5.00;;;20.30;99.90;;;;;;5053202;28;20481;-57
2022/07/27 06:00:17;;;;;;;5.00;4.60;;;20.40;99.90;;;;;;5052704;28;21061;-58
2022/07/27 06:02:44;;;;;;;5.23;4.73;;;20.50;99.90;;;;;;5052757;28;20956;-58
2022/07/27 06:05:11;;;;;;;4.90;4.50;;;20.50;99.90;;;;;;5053175;28;20938;-58
2022/07/27 06:10:23;;;;;;;6.10;4.67;;;20.70;99.90;;;;;;5052466;28;20460;-58
2022/07/27 06:12:52;;;;;;;5.10;4.60;;;20.70;99.90;;;;;;5052493;28;20445;-58
2022/07/27 06:15:19;;;;;;;5.93;5.20;;;20.80;99.90;;;;;;5052840;28;20480;-57
2022/07/27 06:17:48;;;;;;;6.70;6.10;;;20.80;99.90;;;;;;5052674;28;20477;-58
2022/07/27 06:20:15;;;;;;;5.40;5.00;;;20.80;99.90;;;;;;5052768;28;20473;-58
2022/07/27 06:22:47;;;;;;;7.03;6.00;;;20.70;99.90;;;;;;5052801;28;20449;-58
2022/07/27 06:25:14;;;;;;;7.40;5.47;;;20.80;99.90;;;;;;5052426;28;20485;-57
2022/07/27 06:27:42;;;;;;;6.23;5.13;;;20.70;99.90;;;;;;5052188;28;20925;-57
2022/07/27 06:30:14;;;;;;;5.53;5.07;;;20.70;99.90;;;;;;5052136;28;21043;-58
2022/07/27 06:32:42;;;;;;;6.60;5.07;;;20.80;99.90;;;;;;5052511;28;20996;-58
2022/07/27 06:35:10;;;;;;;5.50;5.07;;;20.70;99.90;;;;;;5052260;28;20861;-57
2022/07/27 06:37:42;;;;;;;4.83;4.43;;;20.90;99.90;;;;;;5055436;28;20590;-57
2022/07/27 06:40:12;;;;;;;5.37;4.87;;;21.00;99.90;;;;;;5059223;28;20808;-58
2022/07/27 06:42:39;;;;;;;9.70;5.53;;;20.90;99.90;;;;;;5058897;28;20477;-58
2022/07/27 06:45:07;;;;;;;4.73;4.33;;;21.10;99.90;;;;;;5058770;28;20449;-58
2022/07/27 06:47:38;;;;;;;10.10;4.60;;;21.30;99.90;;;;;;5058846;28;20536;-58
2022/07/27 06:50:06;;;;;;;19.33;6.97;;;21.10;99.90;;;;;;5058788;28;20476;-58
2022/07/27 06:52:34;;;;;;;5.00;4.50;;;21.20;99.90;;;;;;5058504;28;20859;-58
2022/07/27 06:55:01;;;;;;;6.30;5.00;;;21.30;99.90;;;;;;5058841;28;20456;-58
2022/07/27 06:57:28;;;;;;;5.60;5.10;;;21.50;99.90;;;;;;5058904;28;20481;-57
2022/07/27 06:59:56;;;;;;;5.53;5.00;;;21.70;99.90;;;;;;5059249;28;20477;-58
2022/07/27 07:02:23;;;;;;;6.50;4.90;;;21.70;99.90;;;;;;5058899;28;20503;-58
2022/07/27 07:04:52;;;;;;;5.33;4.83;;;21.50;99.90;;;;;;5058748;28;20959;-58
2022/07/27 07:07:20;;;;;;;6.00;4.97;;;21.50;99.90;;;;;;5059031;28;20445;-58
2022/07/27 07:09:47;;;;;;;6.10;5.50;;;21.50;99.90;;;;;;5058707;28;20530;-58
2022/07/27 07:12:14;;;;;;;5.70;5.10;;;21.70;99.90;;;;;;5058604;28;21020;-58
2022/07/27 07:14:41;;;;;;;5.67;4.97;;;22.00;99.90;;;;;;5058992;28;20542;-57
2022/07/27 07:17:09;;;;;;;5.67;5.20;;;22.10;99.90;;;;;;5058473;28;20481;-58
2022/07/27 07:19:36;;;;;;;6.13;5.03;;;22.10;99.80;;;;;;5058860;28;20543;-58
2022/07/27 07:22:04;;;;;;;4.63;4.23;;;22.20;99.90;;;;;;5058732;28;20884;-58
2022/07/27 07:24:32;;;;;;;7.73;5.00;;;22.40;99.50;;;;;;5058622;28;20429;-58
2022/07/27 07:26:59;;;;;;;6.10;4.90;;;22.40;99.80;;;;;;5058939;28;20528;-57
2022/07/27 07:29:26;;;;;;;5.30;4.50;;;22.40;99.60;;;;;;5058895;28;20445;-58
2022/07/27 07:31:53;;;;;;;5.60;5.10;;;22.40;99.20;;;;;;5058866;28;20845;-58
2022/07/27 07:34:20;;;;;;;4.77;4.37;;;22.30;98.70;;;;;;5058787;28;20445;-58
2022/07/27 07:36:48;;;;;;;5.43;5.03;;;22.20;99.30;;;;;;5058447;28;20580;-56
2022/07/27 07:39:17;;;;;;;5.13;4.73;;;22.00;98.80;;;;;;5058220;28;20463;-56
2022/07/27 07:41:44;;;;;;;5.33;4.47;;;21.90;99.50;;;;;;5058070;28;20853;-57
2022/07/27 07:44:13;;;;;;;4.43;3.73;;;21.80;99.60;;;;;;5058750;28;20875;-57
2022/07/27 07:46:40;;;;;;;4.57;4.17;;;21.90;99.90;;;;;;5058439;28;20453;-59
2022/07/27 07:49:07;;;;;;;5.73;4.60;;;22.20;99.70;;;;;;5056247;28;20484;-57
2022/07/27 07:51:34;;;;;;;7.13;5.10;;;22.20;99.10;;;;;;5055520;28;20539;-57
2022/07/27 07:54:02;;;;;;;6.83;5.33;;;22.50;99.90;;;;;;5055533;28;20456;-57
2022/07/27 07:56:30;;;;;;;5.20;4.70;;;22.70;99.10;;;;;;5054960;28;20976;-57
2022/07/27 07:58:58;;;;;;;7.00;5.13;;;22.70;98.70;;;;;;5055225;28;20513;-58
2022/07/27 08:01:25;;;;;;;4.70;4.40;;;22.90;98.50;;;;;;5055402;28;20520;-57
2022/07/27 08:03:52;;;;;;;6.63;4.37;;;23.10;99.10;;;;;;5055347;28;20445;-56
2022/07/27 08:06:20;;;;;;;5.60;4.93;;;23.20;98.30;;;;;;5054764;28;20928;-59
2022/07/27 08:08:47;;;;;;;8.00;4.87;;;23.30;97.70;;;;;;5055291;28;20521;-60
2022/07/27 08:11:14;;;;;;;5.03;4.57;;;23.00;97.70;;;;;;5054925;28;20508;-58
2022/07/27 08:13:43;;;;;;;6.03;4.70;;;23.00;98.30;;;;;;5055161;28;20503;-58
2022/07/27 08:16:10;;;;;;;5.03;4.63;;;23.10;98.40;;;;;;5055038;28;20438;-57
2022/07/27 08:18:37;;;;;;;5.43;5.03;;;23.50;97.70;;;;;;5054762;28;20568;-57
2022/07/27 08:21:05;;;;;;;5.30;4.90;;;23.80;97.70;;;;;;5054608;28;21012;-57
2022/07/27 08:23:32;;;;;;;4.73;4.23;;;23.60;96.50;;;;;;5055131;28;20452;-57
2022/07/27 08:25:59;;;;;;;7.33;4.63;;;23.70;97.40;;;;;;5054370;28;20504;-57
2022/07/27 08:28:27;;;;;;;6.87;4.70;;;23.70;96.70;;;;;;5054544;28;20447;-57
2022/07/27 08:30:55;;;;;;;7.27;4.93;;;24.00;97.00;;;;;;5054730;28;20989;-58
2022/07/27 08:33:23;;;;;;;5.40;4.67;;;24.80;96.50;;;;;;5054821;28;20472;-58
2022/07/27 08:35:51;;;;;;;6.70;5.30;;;25.20;95.80;;;;;;5054426;28;20460;-57
2022/07/27 08:38:18;;;;;;;5.67;4.60;;;25.30;95.20;;;;;;5054378;28;20477;-58
2022/07/27 08:40:47;;;;;;;5.00;4.60;;;25.90;93.50;;;;;;5054892;28;20572;-57
2022/07/27 08:43:16;;;;;;;7.83;4.80;;;25.80;93.70;;;;;;5054093;28;20567;-58
2022/07/27 08:45:44;;;;;;;4.97;4.40;;;25.90;92.60;;;;;;5054631;28;20529;-58
2022/07/27 08:48:14;;;;;;;9.57;5.00;;;26.30;92.90;;;;;;5054335;28;20447;-58
2022/07/27 08:50:42;;;;;;;10.60;5.13;;;26.90;91.30;;;;;;5054077;28;20863;-58
2022/07/27 08:53:12;;;;;;;4.80;4.40;;;26.60;91.30;;;;;;5054331;28;20846;-58
2022/07/27 08:55:41;;;;;;;4.97;3.80;;;26.80;91.00;;;;;;5054434;28;20480;-59
2022/07/27 08:58:10;;;;;;;6.83;4.30;;;26.70;90.70;;;;;;5054104;28;20579;-57
2022/07/27 09:00:40;;;;;;;4.90;4.50;;;26.30;90.90;;;;;;5052802;28;20473;-57
2022/07/27 09:03:07;;;;;;;5.43;4.90;;;26.10;91.00;;;;;;5054114;28;20524;-58
2022/07/27 09:05:42;;;;;;;4.47;4.07;;;26.10;91.60;;;;;;5053877;28;20456;-58
2022/07/27 09:08:10;;;;;;;5.73;4.53;;;26.20;90.50;;;;;;5053664;28;20445;-58
2022/07/27 09:10:38;;;;;;;5.33;4.37;;;26.10;90.60;;;;;;5054171;28;20465;-58
2022/07/27 09:13:18;;;;;;;5.07;4.50;;;26.50;90.60;;;;;;5053881;28;20519;-58
2022/07/27 09:15:46;;;;;;;4.13;3.83;;;26.40;91.30;;;;;;5053707;28;20914;-58
2022/07/27 09:18:21;;;;;;;5.87;4.20;;;26.70;90.10;;;;;;5053354;28;20477;-58
2022/07/27 09:21:12;;;;;;;3.87;3.50;;;26.60;90.10;;;;;;5053427;28;20484;-57
2022/07/27 09:23:40;;;;;;;5.80;4.87;;;26.50;90.00;;;;;;5053747;28;20513;-58
2022/07/27 09:26:16;;;;;;;4.77;4.27;;;26.60;89.10;;;;;;5053207;28;21011;-58
2022/07/27 09:28:44;;;;;;;5.40;4.30;;;26.50;90.30;;;;;;5053670;28;20417;-58
2022/07/27 09:31:12;;;;;;;4.20;3.80;;;26.80;89.10;;;;;;5053149;28;20505;-59
2022/07/27 09:33:48;;;;;;;4.17;3.87;;;26.10;88.20;;;;;;5052990;28;20965;-58
2022/07/27 09:36:18;;;;;;;4.40;4.00;;;26.50;88.90;;;;;;5053299;28;20447;-58
2022/07/27 09:38:54;;;;;;;6.93;4.50;;;27.20;87.50;;;;;;5053092;28;20469;-59
2022/07/27 09:41:22;;;;;;;5.10;4.30;;;27.70;85.70;;;;;;5052856;28;20473;-59
2022/07/27 09:43:50;;;;;;;5.30;4.10;;;;;;;;;;5053111;28;20970;-58
2022/07/27 09:46:29;;;;;;;4.60;3.83;;;27.90;83.40;;;;;;5053119;28;20968;-60
2022/07/27 09:48:57;;;;;;;8.60;5.00;;;27.90;84.20;;;;;;5053473;28;20433;-58
2022/07/27 09:51:25;;;;;;;6.27;4.80;;;27.10;85.10;;;;;;5053142;28;20473;-57
2022/07/27 09:53:54;;;;;;;9.83;4.27;;;26.50;86.20;;;;;;5053164;28;20544;-59
2022/07/27 09:56:27;;;;;;;4.97;4.47;;;26.40;86.70;;;;;;5052731;28;20995;-57
2022/07/27 09:58:56;;;;;;;5.40;4.17;;;26.50;85.70;;;;;;5053091;28;20560;-57
2022/07/27 10:01:25;;;;;;;4.47;3.90;;;26.90;85.50;;;;;;5052795;28;20473;-58
2022/07/27 10:03:55;;;;;;;5.53;4.07;;;27.10;85.40;;;;;;5052967;28;20449;-57
2022/07/27 10:06:22;;;;;;;4.00;3.67;;;27.30;84.10;;;;;;5053117;28;20519;-57
2022/07/27 10:08:52;;;;;;;4.30;3.90;;;27.80;85.00;;;;;;5052979;28;20448;-59
2022/07/27 10:11:21;;;;;;;6.00;4.30;;;28.00;82.60;;;;;;5052693;28;20472;-57
2022/07/27 10:13:49;;;;;;;7.67;4.40;;;28.60;81.40;;;;;;5052552;28;20451;-57
2022/07/27 10:16:18;;;;;;;6.00;5.00;;;28.40;81.80;;;;;;5053207;28;20449;-57
2022/07/27 10:19:00;;;;;;;5.37;4.27;;;28.20;82.80;;;;;;5052609;28;20481;-57
2022/07/27 10:21:28;;;;;;;6.10;3.90;;;28.50;80.30;;;;;;5052453;28;20473;-58
2022/07/27 10:23:59;;;;;;;4.47;4.07;;;28.60;80.90;;;;;;5052800;28;20806;-58
2022/07/27 10:26:34;;;;;;;4.70;3.77;;;28.10;79.70;;;;;;5052928;28;20429;-58
2022/07/27 10:29:03;;;;;;;3.83;3.63;;;27.90;83.10;;;;;;5052602;28;20449;-58
2022/07/27 10:31:35;;;;;;;12.63;4.20;;;29.00;79.10;;;;;;5052254;28;20487;-58
2022/07/27 10:34:04;;;;;;;4.47;4.00;;;29.90;75.90;;;;;;5052541;28;20429;-58
2022/07/27 10:36:50;;;;;;;4.10;3.70;;;30.20;73.80;;;;;;5052653;28;20453;-59
2022/07/27 10:39:38;;;;;;;4.70;4.07;;;30.10;73.20;;;;;;5052489;28;20987;-58
2022/07/27 10:42:26;;;;;;;5.07;3.73;;;30.60;72.80;;;;;;5052198;28;20505;-59
2022/07/27 10:45:04;;;;;;;4.53;4.23;;;31.30;71.50;;;;;;5052682;28;20518;-59
2022/07/27 10:47:34;;;;;;;5.73;3.80;;;30.20;69.20;;;;;;5052331;28;20429;-59
2022/07/27 10:50:28;;;;;;;4.27;3.87;;;30.20;70.50;;;;;;5053107;28;20560;-58
2022/07/27 10:52:57;;;;;;;4.73;4.17;;;30.70;70.00;;;;;;5052941;28;20832;-59
2022/07/27 10:55:50;;;;;;;4.00;3.60;;;30.60;70.90;;;;;;5052316;28;20540;-58
2022/07/27 10:58:44;;;;;;;5.30;3.37;;;29.40;69.70;;;;;;5043113;28;20492;-60
2022/07/27 11:01:12;;;;;;;3.70;3.40;;;28.80;72.10;;;;;;5052364;28;20480;-58
2022/07/27 11:03:41;;;;;;;3.93;3.60;;;28.50;72.00;;;;;;5052396;28;20449;-59
2022/07/27 11:06:11;;;;;;;3.70;3.37;;;28.40;70.70;;;;;;5052327;28;20532;-59
2022/07/27 11:08:40;;;;;;;4.83;3.73;;;27.60;69.80;;;;;;5052051;28;20451;-58
2022/07/27 11:11:10;;;;;;;3.83;3.53;;;28.50;70.00;;;;;;5052126;28;20524;-59
2022/07/27 11:13:37;;;;;;;3.33;3.13;;;28.20;69.10;;;;;;5051904;28;20480;-59
2022/07/27 11:16:06;;;;;;;3.70;3.43;;;28.40;70.10;;;;;;5052350;28;20544;-59
2022/07/27 11:18:35;;;;;;;3.43;3.13;;;28.40;70.30;;;;;;5052029;28;20838;-59
2022/07/27 11:21:18;;;;;;;4.07;3.67;;;28.00;71.50;;;;;;5052002;28;20480;-59
2022/07/27 11:23:47;;;;;;;4.93;3.80;;;27.80;72.50;;;;;;5051989;28;20940;-58
2022/07/27 11:26:16;;;;;;;4.10;3.80;;;27.70;72.00;;;;;;5055740;28;20453;-58
2022/07/27 11:28:44;;;;;;;4.87;4.30;;;27.30;71.60;;;;;;5055825;28;20528;-59
2022/07/27 11:31:13;;;;;;;3.87;3.33;;;27.10;71.90;;;;;;5055933;28;20902;-59
2022/07/27 11:33:57;;;;;;;4.10;3.70;;;27.30;73.00;;;;;;5055802;28;20453;-58
2022/07/27 11:36:36;;;;;;;3.80;3.50;;;27.30;71.10;;;;;;5055621;28;20468;-58
2022/07/27 11:39:06;;;;;;;4.43;3.30;;;27.30;71.50;;;;;;5055554;28;20484;-58
2022/07/27 11:41:36;;;;;;;3.30;3.00;;;27.70;68.30;;;;;;5055099;28;21015;-58
2022/07/27 11:44:06;;;;;;;15.23;4.70;;;28.00;66.80;;;;;;5055873;28;20497;-59
2022/07/27 11:46:34;;;;;;;4.53;3.20;;;28.30;66.20;;;;;;5055378;28;20449;-58
2022/07/27 11:49:08;;;;;;;3.13;2.93;;;28.50;67.20;;;;;;5055856;28;20449;-59
2022/07/27 11:51:36;;;;;;;4.30;3.93;;;28.40;64.50;;;;;;5055652;28;20475;-58
2022/07/27 11:54:06;;;;;;;5.73;3.30;;;27.90;66.80;;;;;;5055576;28;20453;-58
2022/07/27 11:56:37;;;;;;;2.90;2.70;;;27.30;67.80;;;;;;5055413;28;20449;-58
2022/07/27 11:59:10;;;;;;;3.23;3.00;;;27.00;68.70;;;;;;5055337;28;20469;-57
2022/07/27 12:01:40;;;;;;;4.47;4.00;;;27.10;70.30;;;;;;5055540;28;20465;-58
2022/07/27 12:04:14;;;;;;;3.00;2.80;;;27.20;69.40;;;;;;5055309;28;20449;-58
2022/07/27 12:06:43;;;;;;;6.40;3.07;;;27.60;67.90;;;;;;5054910;28;20438;-58
2022/07/27 12:09:13;;;;;;;3.70;3.00;;;27.80;68.20;;;;;;5055022;28;20489;-58
2022/07/27 12:12:09;;;;;;;3.30;2.90;;;27.30;67.20;;;;;;5054923;28;20854;-58
2022/07/27 12:14:38;;;;;;;5.70;3.47;;;26.90;68.10;;;;;;5052455;28;20535;-57
2022/07/27 12:17:20;;;;;;;4.50;3.13;;;26.80;69.70;;;;;;5055345;28;20846;-57
2022/07/27 12:19:53;;;;;;;2.93;2.73;;;27.70;68.00;;;;;;5054799;28;20567;-57
2022/07/27 12:22:28;;;;;;;3.60;3.30;;;28.80;66.00;;;;;;5054719;28;20456;-57
2022/07/27 12:24:56;;;;;;;3.60;3.13;;;29.30;63.70;;;;;;5054958;28;20457;-58
2022/07/27 12:27:26;;;;;;;4.33;2.60;;;29.60;61.60;;;;;;5054666;28;20522;-57
2022/07/27 12:29:58;;;;;;;4.03;2.60;;;29.90;62.50;;;;;;5054827;28;20572;-59
2022/07/27 12:32:26;;;;;;;4.87;2.93;;;30.70;60.90;;;;;;5054537;28;20913;-59
2022/07/27 12:34:53;;;;;;;5.00;2.47;;;30.40;59.00;;;;;;5054340;28;20540;-59
2022/07/27 12:37:21;;;;;;;3.00;2.70;;;29.70;58.80;;;;;;5054972;28;20484;-58
2022/07/27 12:39:49;;;;;;;2.80;2.53;;;29.80;58.70;;;;;;5054591;28;20493;-59
2022/07/27 12:42:16;;;;;;;3.23;2.30;;;29.30;58.90;;;;;;5054380;28;20481;-59
2022/07/27 12:44:46;;;;;;;4.97;2.90;;;28.70;59.30;;;;;;5054922;28;20488;-59
2022/07/27 12:50:04;;;;;;;2.37;2.20;;;28.00;60.70;;;;;;5054338;28;20448;-59
2022/07/27 12:52:31;;;;;;;2.93;2.37;;;27.70;61.80;;;;;;5054280;28;21015;-59
2022/07/27 12:54:58;;;;;;;4.07;2.80;;;27.60;62.40;;;;;;5054269;28;20457;-59
2022/07/27 12:57:26;;;;;;;3.73;2.87;;;27.50;62.50;;;;;;5054237;28;20528;-59
2022/07/27 12:59:55;;;;;;;2.90;2.60;;;27.60;65.30;;;;;;5053841;28;20619;-59
2022/07/27 13:02:22;;;;;;;3.30;3.10;;;27.50;66.00;;;;;;5054013;28;20481;-59
2022/07/27 13:04:50;;;;;;;2.70;2.50;;;28.30;64.80;;;;;;5054101;28;20453;-59
2022/07/27 13:07:17;;;;;;;2.90;2.70;;;28.90;61.60;;;;;;5054150;28;20445;-59